createdAt,value
2018-07-05T00:01:03.083Z,72.18
2018-07-05T00:03:49.238Z,72.47
2018-07-05T00:06:35.375Z,72.53
2018-07-05T00:09:21.554Z,72.48
2018-07-05T00:12:07.527Z,72.77
2018-07-05T00:14:47.993Z,73.24
2018-07-05T00:17:34.246Z,72.37
2018-07-05T00:20:20.605Z,72.63
2018-07-05T00:23:06.678Z,72.34
2018-07-05T00:25:52.889Z,72.14
2018-07-05T00:28:39.058Z,71.78
2018-07-05T00:31:25.025Z,72.16
2018-07-05T01:09:35.163Z,73.42
2018-07-05T01:12:21.465Z,74.42
2018-07-05T01:15:07.926Z,73.63
2018-07-05T01:17:48.200Z,73.78
2018-07-05T01:20:34.435Z,73.64
2018-07-05T01:23:21.033Z,73.57
2018-07-05T01:26:07.612Z,74.10
2018-07-05T01:28:53.911Z,73.52
2018-07-05T01:31:40.325Z,73.68
2018-07-05T01:34:26.730Z,72.97
2018-07-05T01:37:13.222Z,74.03
2018-07-05T01:39:59.712Z,73.86
2018-07-05T01:42:45.824Z,74.07
2018-07-05T01:45:32.022Z,74.61
2018-07-05T01:48:18.215Z,73.87
2018-07-05T01:51:04.345Z,74.43
2018-07-05T01:53:50.539Z,75.70
2018-07-05T01:56:36.769Z,75.52
2018-07-05T01:59:22.879Z,74.91
2018-07-05T02:02:08.864Z,75.14
2018-07-05T02:04:54.923Z,75.37
2018-07-05T02:07:40.966Z,74.43
2018-07-05T02:10:27.107Z,74.31
2018-07-05T02:13:13.091Z,74.55
2018-07-05T02:15:59.245Z,74.70
2018-07-05T02:18:45.522Z,74.39
2018-07-05T02:21:31.771Z,74.46
2018-07-05T02:24:17.820Z,74.85
2018-07-05T02:27:03.922Z,75.60
2018-07-05T02:29:50.135Z,75.33
2018-07-05T02:32:36.274Z,75.28
2018-07-05T02:35:22.688Z,75.65
2018-07-05T02:38:14.396Z,74.59
2018-07-05T02:41:00.814Z,74.28
2018-07-05T02:43:47.206Z,74.75
2018-07-05T02:46:33.199Z,74.64
2018-07-05T02:49:19.441Z,73.91
2018-07-05T02:52:05.531Z,74.83
2018-07-05T02:54:51.603Z,74.82
2018-07-05T02:57:37.688Z,75.16
2018-07-05T03:00:23.751Z,75.44
2018-07-05T03:03:09.864Z,75.83
2018-07-05T03:05:56.207Z,74.44
2018-07-05T03:08:36.490Z,73.00
2018-07-05T03:11:16.761Z,71.21
2018-07-05T03:13:57.249Z,69.98
2018-07-05T03:16:43.631Z,67.74
2018-07-05T03:19:30.139Z,67.98
2018-07-05T03:22:16.265Z,64.39
2018-07-05T03:25:02.437Z,65.32
2018-07-05T03:27:49.101Z,64.63
2018-07-05T03:30:29.495Z,64.37
2018-07-05T03:33:16.014Z,65.57
2018-07-05T03:35:56.414Z,66.33
2018-07-05T03:38:42.909Z,66.57
2018-07-05T03:41:23.254Z,68.36
2018-07-05T03:44:09.461Z,69.54
2018-07-05T03:46:55.542Z,70.62
2018-07-05T03:49:41.793Z,70.67
2018-07-05T03:52:28.013Z,70.35
2018-07-05T03:55:14.307Z,69.05
2018-07-05T03:58:00.482Z,71.42
2018-07-05T04:00:46.744Z,71.37
2018-07-05T04:03:32.921Z,72.57
2018-07-05T04:06:18.945Z,73.80
2018-07-05T04:09:05.243Z,75.59
2018-07-05T04:11:51.833Z,74.61
2018-07-05T04:14:38.075Z,74.55
2018-07-05T04:17:24.216Z,76.43
2018-07-05T04:20:10.211Z,76.37
2018-07-05T04:22:56.737Z,74.94
2018-07-05T04:25:43.234Z,75.59
2018-07-05T04:28:29.670Z,75.17
2018-07-05T04:31:16.237Z,75.51
2018-07-05T04:34:02.471Z,75.11
2018-07-05T04:36:48.544Z,74.44
2018-07-05T04:39:34.622Z,74.87
2018-07-05T04:42:20.685Z,74.81
2018-07-05T04:45:06.753Z,74.31
2018-07-05T04:47:52.890Z,73.48
2018-07-05T04:50:39.221Z,73.13
2018-07-05T04:53:25.515Z,72.57
2018-07-05T04:56:11.787Z,70.12
2018-07-05T04:58:58.059Z,70.67
2018-07-05T05:01:44.231Z,72.11
2018-07-05T05:04:24.593Z,72.06
2018-07-05T05:07:10.885Z,71.45
2018-07-05T05:09:57.037Z,69.27
2018-07-05T05:12:43.564Z,69.31
2018-07-05T05:15:29.980Z,69.13
2018-07-05T05:18:10.578Z,68.36
2018-07-05T05:20:56.995Z,68.05
2018-07-05T05:23:43.375Z,66.11
2018-07-05T05:26:29.856Z,66.97
2018-07-05T05:29:16.186Z,67.62
2018-07-05T05:32:02.617Z,66.65
2018-07-05T05:34:49.179Z,67.69
2018-07-05T05:37:29.447Z,67.24
2018-07-05T05:40:15.729Z,66.29
2018-07-05T05:43:01.923Z,66.41
2018-07-05T05:45:47.973Z,65.98
2018-07-05T05:48:34.054Z,66.91
2018-07-05T05:51:20.501Z,65.91
2018-07-05T05:54:06.923Z,67.49
2018-07-05T05:56:53.425Z,66.76
2018-07-05T05:59:33.678Z,65.87
2018-07-05T06:02:19.940Z,65.19
2018-07-05T06:05:06.199Z,65.19
2018-07-05T06:07:52.454Z,65.20
2018-07-05T06:10:38.655Z,64.11
2018-07-05T06:13:24.855Z,64.20
2018-07-05T06:16:10.953Z,63.57
2018-07-05T06:18:57.391Z,62.30
2018-07-05T06:21:43.813Z,63.48
2018-07-05T06:24:30.329Z,62.31
2018-07-05T06:27:16.423Z,63.98
2018-07-05T06:30:02.591Z,63.40
2018-07-05T06:32:49.155Z,64.45
2018-07-05T06:35:35.254Z,62.98
2018-07-05T06:38:21.255Z,63.36
2018-07-05T06:41:07.325Z,63.70
2018-07-05T06:43:53.410Z,63.84
2018-07-05T06:46:39.439Z,64.34
2018-07-05T06:49:25.700Z,63.56
2018-07-05T06:52:11.831Z,64.56
2018-07-05T06:54:58.329Z,63.85
2018-07-05T06:57:44.592Z,66.68
2018-07-05T07:00:30.871Z,66.46
2018-07-05T07:03:17.293Z,68.04
2018-07-05T07:06:03.502Z,69.09
2018-07-05T07:08:49.851Z,68.87
2018-07-05T07:11:36.305Z,69.31
2018-07-05T07:14:22.784Z,70.39
2018-07-05T07:17:03.066Z,71.18
2018-07-05T07:19:49.594Z,70.30
2018-07-05T07:22:35.766Z,69.94
2018-07-05T07:25:21.841Z,69.43
2018-07-05T07:28:08.009Z,70.21
2018-07-05T07:30:54.127Z,68.92
2018-07-05T07:33:40.195Z,69.21
2018-07-05T07:36:26.337Z,68.51
2018-07-05T07:39:12.529Z,68.69
2018-07-05T07:41:46.727Z,68.22
2018-07-05T07:44:14.969Z,68.43
2018-07-05T07:46:42.750Z,67.60
2018-07-05T07:49:10.501Z,67.15
2018-07-05T07:51:38.210Z,67.23
2018-07-05T07:54:05.983Z,66.33
2018-07-05T07:56:33.691Z,64.55
2018-07-05T07:59:01.441Z,63.26
2018-07-05T08:01:29.185Z,62.68
2018-07-05T08:03:56.943Z,61.27
2018-07-05T08:06:24.646Z,60.68
2018-07-05T08:08:52.361Z,60.76
2018-07-05T08:11:20.078Z,60.90
2018-07-05T08:13:47.813Z,59.50
2018-07-05T08:16:15.495Z,59.23
2018-07-05T08:18:43.216Z,58.29
2018-07-05T08:21:10.931Z,58.17
2018-07-05T08:23:38.636Z,58.29
2018-07-05T08:26:06.350Z,59.51
2018-07-05T08:28:34.171Z,59.57
2018-07-05T08:31:01.929Z,59.57
2018-07-05T08:33:29.673Z,59.73
2018-07-05T08:35:57.710Z,59.62
2018-07-05T08:38:25.400Z,58.05
2018-07-05T08:40:53.214Z,57.24
2018-07-05T08:43:20.930Z,56.24
2018-07-05T08:45:48.704Z,54.83
2018-07-05T08:48:16.414Z,52.95
2018-07-05T08:50:44.149Z,51.94
2018-07-05T08:53:11.915Z,50.84
2018-07-05T08:55:39.736Z,50.55
2018-07-05T08:58:08.422Z,48.67
2018-07-05T09:00:36.133Z,49.19
2018-07-05T09:03:03.913Z,49.65
2018-07-05T09:05:31.691Z,49.75
2018-07-05T09:07:59.537Z,47.78
2018-07-05T09:10:27.288Z,46.44
2018-07-05T09:12:55.015Z,45.24
2018-07-05T09:15:22.742Z,44.57
2018-07-05T09:17:50.647Z,43.72
2018-07-05T09:20:18.237Z,42.01
2018-07-05T09:22:45.975Z,42.39
2018-07-05T09:25:13.759Z,42.37
2018-07-05T09:27:41.437Z,44.00
2018-07-05T09:30:09.176Z,42.25
2018-07-05T09:32:36.937Z,43.44
2018-07-05T09:35:04.697Z,43.56
2018-07-05T09:37:32.641Z,43.81
2018-07-05T09:40:00.569Z,43.96
2018-07-05T09:42:28.435Z,43.71
2018-07-05T09:44:56.197Z,43.14
2018-07-05T09:47:24.015Z,41.97
2018-07-05T09:49:51.880Z,41.60
2018-07-05T09:52:19.584Z,39.39
2018-07-05T09:54:47.364Z,40.01
2018-07-05T09:57:15.107Z,41.08
2018-07-05T09:59:42.862Z,39.01
2018-07-05T10:02:10.628Z,39.09
2018-07-05T10:04:38.375Z,39.75
2018-07-05T10:07:06.139Z,38.92
2018-07-05T10:09:33.884Z,37.88
2018-07-05T10:12:01.698Z,38.46
2018-07-05T10:14:29.458Z,38.17
2018-07-05T10:16:57.755Z,38.87
2018-07-05T10:19:25.519Z,37.72
2018-07-05T10:21:53.232Z,37.77
2018-07-05T10:24:23.082Z,37.01
2018-07-05T10:26:50.858Z,36.13
2018-07-05T10:29:37.944Z,36.94
2018-07-05T10:32:18.217Z,36.54
2018-07-05T10:34:47.290Z,35.39
2018-07-05T10:37:20.278Z,36.89
2018-07-05T10:40:06.708Z,36.86
2018-07-05T10:42:53.037Z,35.82
2018-07-05T10:45:39.117Z,37.38
2018-07-05T10:48:25.444Z,35.85
2018-07-05T10:51:11.870Z,37.58
2018-07-05T10:53:58.183Z,40.11
2018-07-05T10:56:44.588Z,37.07
2018-07-05T10:59:31.147Z,37.24
2018-07-05T11:02:17.623Z,37.24
2018-07-05T11:05:03.982Z,36.71
2018-07-05T11:07:50.486Z,36.80
2018-07-05T11:10:36.503Z,37.23
2018-07-05T11:13:22.719Z,37.02
2018-07-05T11:16:08.771Z,39.35
2018-07-05T11:18:55.054Z,37.83
2018-07-05T11:21:41.418Z,37.15
2018-07-05T11:24:27.576Z,38.15
2018-07-05T11:27:14.974Z,38.80
2018-07-05T11:30:01.522Z,38.85
2018-07-05T11:32:47.666Z,39.81
2018-07-05T11:35:33.764Z,38.46
2018-07-05T11:38:21.057Z,37.51
2018-07-05T11:41:08.294Z,37.41
2018-07-05T11:43:54.574Z,37.53
2018-07-05T11:46:40.793Z,37.22
2018-07-05T11:49:27.092Z,37.04
2018-07-05T11:52:13.273Z,37.07
2018-07-05T11:54:59.311Z,36.14
2018-07-05T11:57:45.817Z,37.08
2018-07-05T12:00:32.066Z,37.14
2018-07-05T12:03:18.571Z,36.85
2018-07-05T12:06:04.890Z,37.54
2018-07-05T12:08:51.501Z,38.43
2018-07-05T12:11:37.533Z,38.59
2018-07-05T12:14:23.727Z,37.81
2018-07-05T12:17:09.864Z,37.42
2018-07-05T12:19:56.119Z,38.61
2018-07-05T12:22:42.531Z,37.93
2018-07-05T12:25:29.057Z,38.45
2018-07-05T12:28:15.469Z,39.15
2018-07-05T12:31:01.840Z,39.37
2018-07-05T12:33:48.095Z,37.55
2018-07-05T12:36:34.629Z,37.85
2018-07-05T12:39:21.250Z,38.04
2018-07-05T12:42:07.510Z,37.13
2018-07-05T12:44:53.855Z,36.71
2018-07-05T12:47:40.082Z,39.00
2018-07-05T12:50:26.719Z,38.32
2018-07-05T12:53:12.958Z,38.08
2018-07-05T12:55:59.535Z,38.16
2018-07-05T12:58:45.495Z,38.53
2018-07-05T13:01:31.767Z,38.16
2018-07-05T13:04:17.949Z,38.92
2018-07-05T13:07:04.276Z,38.39
2018-07-05T13:09:50.463Z,37.63
2018-07-05T13:12:36.811Z,37.03
2018-07-05T13:15:23.015Z,37.88
2018-07-05T13:18:09.225Z,35.66
2018-07-05T13:20:55.178Z,34.88
2018-07-05T13:23:41.339Z,35.21
2018-07-05T13:26:27.511Z,35.15
2018-07-05T13:29:13.666Z,33.99
2018-07-05T13:31:59.990Z,34.81
2018-07-05T13:34:46.172Z,32.97
2018-07-05T13:37:32.500Z,32.88
2018-07-05T13:40:18.694Z,33.47
2018-07-05T13:43:04.964Z,32.14
2018-07-05T13:45:51.288Z,33.82
2018-07-05T13:48:37.745Z,33.44
2018-07-05T13:51:23.996Z,33.67
2018-07-05T13:54:10.288Z,34.21
2018-07-05T13:56:56.514Z,34.44
2018-07-05T13:59:42.697Z,34.20
2018-07-05T14:02:28.934Z,33.71
2018-07-05T14:05:15.369Z,32.91
2018-07-05T14:08:02.018Z,33.21
2018-07-05T14:10:47.951Z,32.57
2018-07-05T14:13:34.296Z,33.27
2018-07-05T14:16:14.637Z,32.54
2018-07-05T14:19:00.994Z,32.33
2018-07-05T14:21:47.566Z,32.67
2018-07-05T14:24:34.162Z,32.86
2018-07-05T14:27:20.634Z,31.85
2018-07-05T14:30:07.007Z,31.73
2018-07-05T14:32:53.287Z,33.31
2018-07-05T14:35:39.538Z,33.95
2018-07-05T14:38:25.845Z,33.63
2018-07-05T14:41:12.081Z,33.62
2018-07-05T14:43:58.315Z,33.97
2018-07-05T14:46:44.622Z,35.02
2018-07-05T14:49:30.846Z,35.39
2018-07-05T14:52:17.397Z,35.45
2018-07-05T14:55:03.936Z,34.20
2018-07-05T14:57:50.255Z,35.67
2018-07-05T15:00:36.635Z,37.08
2018-07-05T15:03:23.049Z,37.15
2018-07-05T15:06:03.624Z,37.86
2018-07-05T15:08:50.088Z,37.32
2018-07-05T15:11:36.471Z,37.25
2018-07-05T15:14:22.783Z,36.24
2018-07-05T15:17:09.196Z,36.16
2018-07-05T15:19:49.529Z,35.83
2018-07-05T15:22:35.860Z,36.71
2018-07-05T15:25:22.210Z,34.89
2018-07-05T15:28:11.240Z,33.37
2018-07-05T15:30:57.689Z,33.82
2018-07-05T15:33:38.292Z,34.57
2018-07-05T15:36:24.703Z,34.57
2018-07-05T15:39:11.107Z,34.66
2018-07-05T15:41:57.519Z,34.97
2018-07-05T15:44:44.011Z,34.64
2018-07-05T15:47:30.576Z,36.28
2018-07-05T15:50:16.927Z,34.68
2018-07-05T15:53:03.337Z,35.66
2018-07-05T15:55:49.707Z,35.79
2018-07-05T15:58:30.954Z,35.32
2018-07-05T16:01:17.709Z,35.78
2018-07-05T16:04:04.241Z,34.57
2018-07-05T16:06:50.791Z,35.51
2018-07-05T16:09:38.086Z,34.82
2018-07-05T16:12:24.667Z,35.80
2018-07-05T16:15:10.888Z,35.41
2018-07-05T16:17:57.615Z,34.98
2018-07-05T16:20:43.988Z,36.38
2018-07-05T16:23:30.126Z,36.39
2018-07-05T16:26:16.554Z,35.52
2018-07-05T16:28:57.133Z,35.85
2018-07-05T16:31:43.820Z,34.64
2018-07-05T16:34:30.463Z,36.21
2018-07-05T16:37:16.858Z,36.37
2018-07-05T16:40:03.176Z,36.26
2018-07-05T16:42:49.736Z,36.66
2018-07-05T16:45:36.249Z,37.95
2018-07-05T16:48:22.884Z,37.41
2018-07-05T16:51:09.635Z,36.59
2018-07-05T16:53:56.179Z,36.68
2018-07-05T16:56:42.919Z,37.32
2018-07-05T16:59:29.720Z,37.77
2018-07-05T17:02:16.395Z,37.33
2018-07-05T17:05:02.711Z,36.82
2018-07-05T17:07:48.823Z,37.07
2018-07-05T17:10:35.190Z,37.50
2018-07-05T17:13:21.519Z,37.56
2018-07-05T17:16:07.874Z,37.57
2018-07-05T17:18:54.340Z,38.17
2018-07-05T17:21:40.636Z,37.85
2018-07-05T17:24:27.022Z,38.63
2018-07-05T17:27:13.579Z,38.39
2018-07-05T17:30:00.015Z,38.58
2018-07-05T17:32:46.220Z,37.99
2018-07-05T17:35:33.107Z,37.64
2018-07-05T17:38:19.653Z,37.72
2018-07-05T17:41:06.404Z,37.05
2018-07-05T17:43:52.962Z,36.72
2018-07-05T17:46:39.397Z,36.69
2018-07-05T17:49:25.970Z,37.86
2018-07-05T17:52:12.176Z,37.97
2018-07-05T17:54:58.673Z,37.32
2018-07-05T17:57:45.261Z,36.93
2018-07-05T18:00:31.773Z,38.83
2018-07-05T18:03:18.040Z,38.43
2018-07-05T18:06:04.390Z,38.83
2018-07-05T18:08:50.749Z,37.99
2018-07-05T18:11:37.043Z,38.81
2018-07-05T18:14:23.584Z,41.11
2018-07-05T18:17:09.757Z,38.86
2018-07-05T18:19:56.220Z,39.14
2018-07-05T18:22:42.279Z,40.57
2018-07-05T18:25:28.876Z,41.70
2018-07-05T18:28:15.409Z,41.24
2018-07-05T18:31:01.810Z,41.96
2018-07-05T18:33:48.278Z,41.96
2018-07-05T18:36:34.595Z,41.83
2018-07-05T18:39:20.892Z,42.57
2018-07-05T18:42:07.441Z,42.16
2018-07-05T18:44:54.022Z,42.46
2018-07-05T18:47:40.699Z,44.45
2018-07-05T18:50:27.063Z,43.23
2018-07-05T18:53:13.394Z,43.19
2018-07-05T18:55:59.627Z,43.50
2018-07-05T18:58:46.264Z,44.81
2018-07-05T19:01:32.763Z,44.51
2018-07-05T19:04:19.087Z,45.08
2018-07-05T19:06:59.547Z,43.80
2018-07-05T19:09:46.009Z,45.56
2018-07-05T19:12:32.513Z,44.01
2018-07-05T19:15:19.088Z,45.09
2018-07-05T19:18:05.646Z,45.28
2018-07-05T19:20:51.944Z,44.85
2018-07-05T19:23:38.360Z,44.58
2018-07-05T19:26:24.744Z,44.46
2018-07-05T19:29:11.281Z,43.87
2018-07-05T19:31:57.994Z,44.40
2018-07-05T19:34:44.589Z,43.83
2018-07-05T19:37:31.110Z,45.51
2018-07-05T19:40:18.836Z,45.21
2018-07-05T19:43:05.252Z,44.52
2018-07-05T19:45:51.758Z,44.85
2018-07-05T19:48:39.668Z,45.31
2018-07-05T19:51:39.064Z,47.13
2018-07-05T19:54:30.889Z,45.91
2018-07-05T19:57:17.344Z,45.94
2018-07-05T20:00:03.749Z,46.79
2018-07-05T20:02:50.121Z,47.22
2018-07-05T20:05:36.690Z,47.17
2018-07-05T20:08:22.869Z,46.08
2018-07-05T20:11:09.450Z,47.15
2018-07-05T20:13:56.357Z,47.11
2018-07-05T20:16:37.444Z,47.25
2018-07-05T20:19:24.158Z,48.32
2018-07-05T20:22:16.113Z,46.90
2018-07-05T20:25:02.609Z,46.92
2018-07-05T20:27:48.972Z,47.05
2018-07-05T20:30:35.554Z,47.24
2018-07-05T20:33:23.495Z,47.17
2018-07-05T20:36:09.816Z,46.94
2018-07-05T20:38:56.308Z,47.88
2018-07-05T20:41:42.908Z,48.08
2018-07-05T20:44:29.404Z,48.56
2018-07-05T20:47:16.282Z,48.94
2018-07-05T20:50:02.764Z,49.89
2018-07-05T20:55:47.457Z,49.89
2018-07-05T20:58:34.159Z,50.55
2018-07-05T21:01:21.428Z,52.67
2018-07-05T21:04:07.811Z,52.89
2018-07-05T21:09:48.866Z,52.30
2018-07-05T21:12:35.233Z,52.68
2018-07-05T21:15:21.708Z,53.92
2018-07-05T21:18:08.175Z,53.19
2018-07-05T21:20:54.551Z,54.03
2018-07-05T21:23:41.484Z,53.76
2018-07-05T21:26:28.550Z,53.97
2018-07-05T21:29:14.649Z,53.60
2018-07-05T21:32:00.927Z,53.21
2018-07-05T21:34:47.307Z,54.66
2018-07-05T21:37:33.715Z,55.20
2018-07-05T21:40:20.239Z,55.64
2018-07-05T21:43:00.690Z,56.79
2018-07-05T21:45:48.049Z,56.91
2018-07-05T21:48:34.501Z,57.39
2018-07-05T21:51:20.945Z,57.17
2018-07-05T21:54:07.543Z,57.86
2018-07-05T21:56:53.996Z,58.88
2018-07-05T21:59:40.382Z,59.28
2018-07-05T22:02:27.900Z,59.04
2018-07-05T22:05:14.546Z,59.71
2018-07-05T22:07:55.588Z,60.37
2018-07-05T22:10:41.947Z,60.15
2018-07-05T22:13:28.243Z,59.81
2018-07-05T22:16:14.731Z,60.98
2018-07-05T22:20:09.869Z,61.04
2018-07-05T22:23:01.655Z,60.41
2018-07-05T22:25:47.563Z,60.91
2018-07-05T22:28:39.412Z,61.13
2018-07-05T22:31:32.705Z,61.45
2018-07-05T22:34:19.103Z,62.00
2018-07-05T22:37:05.729Z,62.60
2018-07-05T22:39:52.135Z,63.74
2018-07-05T22:42:38.721Z,63.93
2018-07-05T22:45:25.107Z,64.40
2018-07-05T22:48:11.625Z,64.54
2018-07-05T22:50:58.061Z,64.99
2018-07-05T22:53:44.579Z,65.31
2018-07-05T22:56:30.973Z,65.42
2018-07-05T22:59:17.568Z,65.55
2018-07-05T23:01:57.854Z,66.02
2018-07-05T23:04:45.089Z,66.22
2018-07-05T23:07:31.604Z,66.07
2018-07-05T23:10:17.789Z,66.10
2018-07-05T23:13:04.094Z,66.16
2018-07-05T23:15:50.490Z,66.55
2018-07-05T23:18:36.830Z,66.47
2018-07-05T23:21:23.317Z,66.29
2018-07-05T23:24:09.607Z,65.87
2018-07-05T23:26:49.974Z,65.33
2018-07-05T23:29:30.449Z,66.14
2018-07-05T23:32:10.912Z,66.37
2018-07-05T23:34:57.284Z,66.20
2018-07-05T23:37:43.575Z,66.93
2018-07-05T23:40:30.391Z,66.88
2018-07-05T23:43:16.758Z,66.61
2018-07-05T23:46:03.479Z,67.54
2018-07-05T23:48:49.914Z,67.82
2018-07-05T23:51:36.079Z,68.32
2018-07-05T23:54:22.571Z,67.87
2018-07-05T23:57:02.946Z,68.61
2018-07-05T23:59:43.322Z,68.31
